sensor_id;sensor_type;location;lat;lon;timestamp;temperature;humidity
20862;DHT22;10591;52.532;13.348;2023-06-14T00:00:57;14.49;67.53
20862;DHT22;10591;52.532;13.348;2023-06-14T00:03:33;14.36;68.17
20862;DHT22;10591;52.532;13.348;2023-06-14T00:06:04;14.30;68.57
20862;DHT22;10591;52.532;13.348;2023-06-14T00:08:35;14.08;69.38
20862;DHT22;10591;52.532;13.348;2023-06-14T00:11:06;14.00;69.78
20862;DHT22;10591;52.532;13.348;2023-06-14T00:13:37;13.94;70.20
20862;DHT22;10591;52.532;13.348;2023-06-14T00:16:09;14.04;69.92
20862;DHT22;10591;52.532;13.348;2023-06-14T00:18:40;13.88;70.38
20862;DHT22;10591;52.532;13.348;2023-06-14T00:21:12;14.02;70.38
20862;DHT22;10591;52.532;13.348;2023-06-14T00:23:44;13.90;70.52
20862;DHT22;10591;52.532;13.348;2023-06-14T00:26:15;13.86;70.70
20862;DHT22;10591;52.532;13.348;2023-06-14T00:28:45;13.92;70.63
20862;DHT22;10591;52.532;13.348;2023-06-14T00:31:16;13.91;70.93
20862;DHT22;10591;52.532;13.348;2023-06-14T00:33:47;13.86;70.95
20862;DHT22;10591;52.532;13.348;2023-06-14T00:36:19;13.72;71.51
20862;DHT22;10591;52.532;13.348;2023-06-14T00:38:52;13.75;71.52
20862;DHT22;10591;52.532;13.348;2023-06-14T00:41:23;13.66;71.85
20862;DHT22;10591;52.532;13.348;2023-06-14T00:43:53;13.72;71.91
20862;DHT22;10591;52.532;13.348;2023-06-14T00:46:25;13.84;71.51
20862;DHT22;10591;52.532;13.348;2023-06-14T00:48:58;13.70;72.15
20862;DHT22;10591;52.532;13.348;2023-06-14T00:51:30;13.66;72.49
20862;DHT22;10591;52.532;13.348;2023-06-14T00:54:00;13.71;72.37
20862;DHT22;10591;52.532;13.348;2023-06-14T00:56:31;13.68;72.81
20862;DHT22;10591;52.532;13.348;2023-06-14T00:59:04;13.70;72.98
20862;DHT22;10591;52.532;13.348;2023-06-14T01:01:35;13.77;72.88
20862;DHT22;10591;52.532;13.348;2023-06-14T01:04:06;13.72;73.11
20862;DHT22;10591;52.532;13.348;2023-06-14T01:06:46;13.76;73.09
20862;DHT22;10591;52.532;13.348;2023-06-14T01:09:30;13.62;73.52
20862;DHT22;10591;52.532;13.348;2023-06-14T01:12:11;13.68;73.61
20862;DHT22;10591;52.532;13.348;2023-06-14T01:14:37;13.66;73.68
20862;DHT22;10591;52.532;13.348;2023-06-14T01:17:08;13.78;73.52
20862;DHT22;10591;52.532;13.348;2023-06-14T01:19:45;13.72;73.59
20862;DHT22;10591;52.532;13.348;2023-06-14T01:22:17;13.84;73.27
20862;DHT22;10591;52.532;13.348;2023-06-14T01:24:48;13.80;73.73
20862;DHT22;10591;52.532;13.348;2023-06-14T01:27:22;13.82;73.69
20862;DHT22;10591;52.532;13.348;2023-06-14T01:29:54;13.76;73.92
20862;DHT22;10591;52.532;13.348;2023-06-14T01:32:33;13.84;73.53
20862;DHT22;10591;52.532;13.348;2023-06-14T01:35:05;13.79;73.71
20862;DHT22;10591;52.532;13.348;2023-06-14T01:37:40;13.79;73.76
20862;DHT22;10591;52.532;13.348;2023-06-14T01:40:12;13.70;73.90
20862;DHT22;10591;52.532;13.348;2023-06-14T01:42:46;13.62;74.38
20862;DHT22;10591;52.532;13.348;2023-06-14T01:45:19;13.66;74.21
20862;DHT22;10591;52.532;13.348;2023-06-14T01:47:50;13.58;74.53
20862;DHT22;10591;52.532;13.348;2023-06-14T01:50:22;13.76;74.10
20862;DHT22;10591;52.532;13.348;2023-06-14T01:52:55;13.80;73.90
20862;DHT22;10591;52.532;13.348;2023-06-14T01:55:26;13.72;74.09
20862;DHT22;10591;52.532;13.348;2023-06-14T01:57:57;13.50;74.73
20862;DHT22;10591;52.532;13.348;2023-06-14T02:00:32;13.49;75.06
20862;DHT22;10591;52.532;13.348;2023-06-14T02:03:03;13.34;75.32
20862;DHT22;10591;52.532;13.348;2023-06-14T02:05:34;13.46;74.98
20862;DHT22;10591;52.532;13.348;2023-06-14T02:08:04;13.40;75.28
20862;DHT22;10591;52.532;13.348;2023-06-14T02:10:35;13.30;75.55
20862;DHT22;10591;52.532;13.348;2023-06-14T02:13:06;13.46;74.88
20862;DHT22;10591;52.532;13.348;2023-06-14T02:15:43;13.30;75.47
20862;DHT22;10591;52.532;13.348;2023-06-14T02:18:10;13.24;75.53
20862;DHT22;10591;52.532;13.348;2023-06-14T02:20:41;13.41;75.28
20862;DHT22;10591;52.532;13.348;2023-06-14T02:23:11;13.10;76.20
20862;DHT22;10591;52.532;13.348;2023-06-14T02:25:42;13.35;75.38
20862;DHT22;10591;52.532;13.348;2023-06-14T02:28:14;13.17;75.86
20862;DHT22;10591;52.532;13.348;2023-06-14T02:30:46;13.16;76.29
20862;DHT22;10591;52.532;13.348;2023-06-14T02:33:17;13.04;76.40
20862;DHT22;10591;52.532;13.348;2023-06-14T02:35:50;13.23;76.08
20862;DHT22;10591;52.532;13.348;2023-06-14T02:38:22;13.27;75.83
20862;DHT22;10591;52.532;13.348;2023-06-14T02:40:52;13.32;75.16
20862;DHT22;10591;52.532;13.348;2023-06-14T02:43:26;13.12;76.16
20862;DHT22;10591;52.532;13.348;2023-06-14T02:45:57;13.12;76.05
20862;DHT22;10591;52.532;13.348;2023-06-14T02:48:30;13.03;76.47
20862;DHT22;10591;52.532;13.348;2023-06-14T02:51:01;12.87;77.08
20862;DHT22;10591;52.532;13.348;2023-06-14T02:53:31;12.78;77.37
20862;DHT22;10591;52.532;13.348;2023-06-14T02:56:02;12.66;77.85
20862;DHT22;10591;52.532;13.348;2023-06-14T02:58:39;12.64;77.97
20862;DHT22;10591;52.532;13.348;2023-06-14T03:01:10;12.60;78.09
20862;DHT22;10591;52.532;13.348;2023-06-14T03:03:42;12.64;78.23
20862;DHT22;10591;52.532;13.348;2023-06-14T03:06:13;12.67;78.16
20862;DHT22;10591;52.532;13.348;2023-06-14T03:08:45;12.64;77.90
20862;DHT22;10591;52.532;13.348;2023-06-14T03:11:17;12.66;78.13
20862;DHT22;10591;52.532;13.348;2023-06-14T03:13:49;12.63;78.12
20862;DHT22;10591;52.532;13.348;2023-06-14T03:16:21;12.76;77.90
20862;DHT22;10591;52.532;13.348;2023-06-14T03:18:53;12.69;78.01
20862;DHT22;10591;52.532;13.348;2023-06-14T03:21:24;12.76;77.97
20862;DHT22;10591;52.532;13.348;2023-06-14T03:23:55;12.81;77.78
20862;DHT22;10591;52.532;13.348;2023-06-14T03:26:26;12.71;77.71
20862;DHT22;10591;52.532;13.348;2023-06-14T03:28:56;12.74;77.66
20862;DHT22;10591;52.532;13.348;2023-06-14T03:31:29;12.87;77.43
20862;DHT22;10591;52.532;13.348;2023-06-14T03:34:02;12.92;77.42
20862;DHT22;10591;52.532;13.348;2023-06-14T03:36:32;12.92;77.43
20862;DHT22;10591;52.532;13.348;2023-06-14T03:39:03;13.08;76.87
20862;DHT22;10591;52.532;13.348;2023-06-14T03:41:36;13.12;76.46
20862;DHT22;10591;52.532;13.348;2023-06-14T03:44:06;13.18;76.35
20862;DHT22;10591;52.532;13.348;2023-06-14T03:46:37;13.30;76.45
20862;DHT22;10591;52.532;13.348;2023-06-14T03:49:07;13.28;76.45
20862;DHT22;10591;52.532;13.348;2023-06-14T03:51:38;13.30;76.27
20862;DHT22;10591;52.532;13.348;2023-06-14T03:54:10;13.30;76.50
20862;DHT22;10591;52.532;13.348;2023-06-14T03:56:42;13.23;76.59
20862;DHT22;10591;52.532;13.348;2023-06-14T03:59:13;13.46;76.13
20862;DHT22;10591;52.532;13.348;2023-06-14T04:01:43;13.47;75.46
20862;DHT22;10591;52.532;13.348;2023-06-14T04:04:16;13.53;75.57
20862;DHT22;10591;52.532;13.348;2023-06-14T04:06:46;13.88;74.62
20862;DHT22;10591;52.532;13.348;2023-06-14T04:09:18;13.86;74.12
20862;DHT22;10591;52.532;13.348;2023-06-14T04:11:48;13.76;74.57
20862;DHT22;10591;52.532;13.348;2023-06-14T04:14:19;13.70;74.53
20862;DHT22;10591;52.532;13.348;2023-06-14T04:16:53;13.75;74.60
20862;DHT22;10591;52.532;13.348;2023-06-14T04:19:24;13.84;74.53
20862;DHT22;10591;52.532;13.348;2023-06-14T04:21:55;13.88;74.10
20862;DHT22;10591;52.532;13.348;2023-06-14T04:24:25;13.90;74.13
20862;DHT22;10591;52.532;13.348;2023-06-14T04:26:59;13.72;74.52
20862;DHT22;10591;52.532;13.348;2023-06-14T04:29:30;14.12;73.69
20862;DHT22;10591;52.532;13.348;2023-06-14T04:32:03;13.82;74.38
20862;DHT22;10591;52.532;13.348;2023-06-14T04:34:36;14.05;74.13
20862;DHT22;10591;52.532;13.348;2023-06-14T04:37:09;13.84;74.35
20862;DHT22;10591;52.532;13.348;2023-06-14T04:39:41;13.82;74.71
20862;DHT22;10591;52.532;13.348;2023-06-14T04:42:11;14.10;74.06
20862;DHT22;10591;52.532;13.348;2023-06-14T04:44:44;14.31;73.51
20862;DHT22;10591;52.532;13.348;2023-06-14T04:47:15;14.40;73.14
20862;DHT22;10591;52.532;13.348;2023-06-14T04:49:46;14.68;72.16
20862;DHT22;10591;52.532;13.348;2023-06-14T04:52:20;15.32;70.05
20862;DHT22;10591;52.532;13.348;2023-06-14T04:54:50;15.64;68.47
20862;DHT22;10591;52.532;13.348;2023-06-14T04:57:22;15.42;69.17
20862;DHT22;10591;52.532;13.348;2023-06-14T04:59:57;15.22;70.48
20862;DHT22;10591;52.532;13.348;2023-06-14T05:02:29;15.88;68.06
20862;DHT22;10591;52.532;13.348;2023-06-14T05:05:00;16.22;67.20
20862;DHT22;10591;52.532;13.348;2023-06-14T05:07:31;16.21;67.39
20862;DHT22;10591;52.532;13.348;2023-06-14T05:10:05;16.80;64.67
20862;DHT22;10591;52.532;13.348;2023-06-14T05:12:36;17.56;63.01
20862;DHT22;10591;52.532;13.348;2023-06-14T05:15:08;17.11;64.84
20862;DHT22;10591;52.532;13.348;2023-06-14T05:17:39;16.02;66.94
20862;DHT22;10591;52.532;13.348;2023-06-14T05:20:11;16.00;67.75
20862;DHT22;10591;52.532;13.348;2023-06-14T05:22:42;15.78;68.74
20862;DHT22;10591;52.532;13.348;2023-06-14T05:25:12;15.62;69.34
20862;DHT22;10591;52.532;13.348;2023-06-14T05:27:43;15.44;69.55
20862;DHT22;10591;52.532;13.348;2023-06-14T05:30:15;15.55;68.97
20862;DHT22;10591;52.532;13.348;2023-06-14T05:32:46;15.58;69.03
20862;DHT22;10591;52.532;13.348;2023-06-14T05:35:17;15.48;69.45
20862;DHT22;10591;52.532;13.348;2023-06-14T05:37:48;15.76;68.98
20862;DHT22;10591;52.532;13.348;2023-06-14T05:40:19;15.50;68.79
20862;DHT22;10591;52.532;13.348;2023-06-14T05:42:50;15.34;70.01
20862;DHT22;10591;52.532;13.348;2023-06-14T05:45:21;15.62;68.92
20862;DHT22;10591;52.532;13.348;2023-06-14T05:47:52;15.51;69.55
20862;DHT22;10591;52.532;13.348;2023-06-14T05:50:26;15.62;69.59
20862;DHT22;10591;52.532;13.348;2023-06-14T05:52:56;15.86;68.70
20862;DHT22;10591;52.532;13.348;2023-06-14T05:55:27;16.18;67.86
20862;DHT22;10591;52.532;13.348;2023-06-14T05:57:59;16.08;68.07
20862;DHT22;10591;52.532;13.348;2023-06-14T06:00:31;16.20;67.62
20862;DHT22;10591;52.532;13.348;2023-06-14T06:03:03;16.11;68.05
20862;DHT22;10591;52.532;13.348;2023-06-14T06:05:34;16.34;67.25
20862;DHT22;10591;52.532;13.348;2023-06-14T06:08:07;15.92;68.15
20862;DHT22;10591;52.532;13.348;2023-06-14T06:10:37;15.96;68.52
20862;DHT22;10591;52.532;13.348;2023-06-14T06:13:08;16.09;68.10
20862;DHT22;10591;52.532;13.348;2023-06-14T06:15:40;15.88;68.31
20862;DHT22;10591;52.532;13.348;2023-06-14T06:18:12;15.88;68.89
20862;DHT22;10591;52.532;13.348;2023-06-14T06:20:43;15.96;68.93
20862;DHT22;10591;52.532;13.348;2023-06-14T06:23:17;16.33;67.64
20862;DHT22;10591;52.532;13.348;2023-06-14T06:25:48;16.17;68.19
20862;DHT22;10591;52.532;13.348;2023-06-14T06:28:19;15.99;68.49
20862;DHT22;10591;52.532;13.348;2023-06-14T06:30:50;16.01;68.64
20862;DHT22;10591;52.532;13.348;2023-06-14T06:33:23;16.00;68.66
20862;DHT22;10591;52.532;13.348;2023-06-14T06:35:54;16.06;68.70
20862;DHT22;10591;52.532;13.348;2023-06-14T06:38:26;16.01;68.83
20862;DHT22;10591;52.532;13.348;2023-06-14T06:41:00;16.32;68.19
20862;DHT22;10591;52.532;13.348;2023-06-14T06:43:33;16.10;68.35
20862;DHT22;10591;52.532;13.348;2023-06-14T06:46:04;16.21;68.23
20862;DHT22;10591;52.532;13.348;2023-06-14T06:48:37;16.26;67.83
20862;DHT22;10591;52.532;13.348;2023-06-14T06:51:08;16.53;67.32
20862;DHT22;10591;52.532;13.348;2023-06-14T06:53:43;16.54;66.75
20862;DHT22;10591;52.532;13.348;2023-06-14T06:56:16;16.67;66.72
20862;DHT22;10591;52.532;13.348;2023-06-14T06:58:49;16.74;66.36
20862;DHT22;10591;52.532;13.348;2023-06-14T07:01:22;16.60;66.82
20862;DHT22;10591;52.532;13.348;2023-06-14T07:04:00;17.10;65.72
20862;DHT22;10591;52.532;13.348;2023-06-14T07:06:40;17.20;64.62
20862;DHT22;10591;52.532;13.348;2023-06-14T07:09:10;17.42;64.80
20862;DHT22;10591;52.532;13.348;2023-06-14T07:11:44;17.38;64.11
20862;DHT22;10591;52.532;13.348;2023-06-14T07:14:15;17.04;65.37
20862;DHT22;10591;52.532;13.348;2023-06-14T07:16:50;16.95;65.78
20862;DHT22;10591;52.532;13.348;2023-06-14T07:19:28;17.08;65.34
20862;DHT22;10591;52.532;13.348;2023-06-14T07:22:09;17.11;65.44
20862;DHT22;10591;52.532;13.348;2023-06-14T07:24:41;17.09;65.86
20862;DHT22;10591;52.532;13.348;2023-06-14T07:27:13;17.26;65.07
20862;DHT22;10591;52.532;13.348;2023-06-14T07:29:44;17.15;65.33
20862;DHT22;10591;52.532;13.348;2023-06-14T07:32:16;17.41;64.63
20862;DHT22;10591;52.532;13.348;2023-06-14T07:34:48;17.16;65.42
20862;DHT22;10591;52.532;13.348;2023-06-14T07:37:20;17.14;65.42
20862;DHT22;10591;52.532;13.348;2023-06-14T07:39:51;17.51;64.50
20862;DHT22;10591;52.532;13.348;2023-06-14T07:42:22;18.08;62.90
20862;DHT22;10591;52.532;13.348;2023-06-14T07:44:53;18.61;61.40
20862;DHT22;10591;52.532;13.348;2023-06-14T07:47:24;17.93;62.72
20862;DHT22;10591;52.532;13.348;2023-06-14T07:49:58;18.34;62.47
20862;DHT22;10591;52.532;13.348;2023-06-14T07:52:29;18.04;62.45
20862;DHT22;10591;52.532;13.348;2023-06-14T07:55:00;17.69;63.76
20862;DHT22;10591;52.532;13.348;2023-06-14T07:57:31;18.02;62.68
20862;DHT22;10591;52.532;13.348;2023-06-14T08:00:02;19.10;60.09
20862;DHT22;10591;52.532;13.348;2023-06-14T08:02:35;19.32;59.14
20862;DHT22;10591;52.532;13.348;2023-06-14T08:05:06;18.54;60.71
20862;DHT22;10591;52.532;13.348;2023-06-14T08:07:41;18.52;60.91
20862;DHT22;10591;52.532;13.348;2023-06-14T08:10:13;19.34;59.41
20862;DHT22;10591;52.532;13.348;2023-06-14T08:12:46;19.56;58.60
20862;DHT22;10591;52.532;13.348;2023-06-14T08:15:18;19.62;59.12
20862;DHT22;10591;52.532;13.348;2023-06-14T08:17:50;19.36;58.97
20862;DHT22;10591;52.532;13.348;2023-06-14T08:20:22;19.10;58.83
20862;DHT22;10591;52.532;13.348;2023-06-14T08:22:54;18.82;59.95
20862;DHT22;10591;52.532;13.348;2023-06-14T08:25:26;19.24;58.85
20862;DHT22;10591;52.532;13.348;2023-06-14T08:27:58;19.08;58.99
20862;DHT22;10591;52.532;13.348;2023-06-14T08:30:30;19.32;58.12
20862;DHT22;10591;52.532;13.348;2023-06-14T08:33:00;18.76;59.35
20862;DHT22;10591;52.532;13.348;2023-06-14T08:35:33;18.75;59.80
20862;DHT22;10591;52.532;13.348;2023-06-14T08:38:05;18.70;59.87
20862;DHT22;10591;52.532;13.348;2023-06-14T08:40:37;18.71;59.70
20862;DHT22;10591;52.532;13.348;2023-06-14T08:43:09;19.07;59.10
20862;DHT22;10591;52.532;13.348;2023-06-14T08:45:46;19.64;57.99
20862;DHT22;10591;52.532;13.348;2023-06-14T08:48:20;19.22;57.68
20862;DHT22;10591;52.532;13.348;2023-06-14T08:50:58;19.36;56.55
20862;DHT22;10591;52.532;13.348;2023-06-14T08:53:34;19.74;56.09
20862;DHT22;10591;52.532;13.348;2023-06-14T08:56:09;19.66;55.62
20862;DHT22;10591;52.532;13.348;2023-06-14T08:58:44;19.95;54.98
20862;DHT22;10591;52.532;13.348;2023-06-14T09:01:17;20.03;54.63
20862;DHT22;10591;52.532;13.348;2023-06-14T09:03:49;20.24;54.10
20862;DHT22;10591;52.532;13.348;2023-06-14T09:06:21;20.38;53.00
20862;DHT22;10591;52.532;13.348;2023-06-14T09:08:55;20.20;53.84
20862;DHT22;10591;52.532;13.348;2023-06-14T09:11:27;20.29;53.45
20862;DHT22;10591;52.532;13.348;2023-06-14T09:13:58;20.93;52.20
20862;DHT22;10591;52.532;13.348;2023-06-14T09:16:32;20.67;52.17
20862;DHT22;10591;52.532;13.348;2023-06-14T09:19:03;20.78;51.77
20862;DHT22;10591;52.532;13.348;2023-06-14T09:21:36;20.92;51.32
20862;DHT22;10591;52.532;13.348;2023-06-14T09:24:13;20.58;53.18
20862;DHT22;10591;52.532;13.348;2023-06-14T09:26:50;20.59;52.69
20862;DHT22;10591;52.532;13.348;2023-06-14T09:29:20;20.45;52.35
20862;DHT22;10591;52.532;13.348;2023-06-14T09:31:52;20.27;52.55
20862;DHT22;10591;52.532;13.348;2023-06-14T09:34:23;19.80;54.50
20862;DHT22;10591;52.532;13.348;2023-06-14T09:36:55;19.63;55.27
20862;DHT22;10591;52.532;13.348;2023-06-14T09:39:26;19.92;54.36
20862;DHT22;10591;52.532;13.348;2023-06-14T09:41:58;19.94;54.55
20862;DHT22;10591;52.532;13.348;2023-06-14T09:44:29;19.81;54.84
20862;DHT22;10591;52.532;13.348;2023-06-14T09:47:00;20.32;54.21
20862;DHT22;10591;52.532;13.348;2023-06-14T09:49:32;20.29;53.36
20862;DHT22;10591;52.532;13.348;2023-06-14T09:52:04;20.60;51.84
20862;DHT22;10591;52.532;13.348;2023-06-14T09:54:40;20.76;51.42
20862;DHT22;10591;52.532;13.348;2023-06-14T09:57:21;21.14;50.75
20862;DHT22;10591;52.532;13.348;2023-06-14T09:59:57;21.68;49.99
20862;DHT22;10591;52.532;13.348;2023-06-14T10:02:34;21.02;51.20
20862;DHT22;10591;52.532;13.348;2023-06-14T10:05:08;21.26;51.01
20862;DHT22;10591;52.532;13.348;2023-06-14T10:07:45;21.13;50.93
20862;DHT22;10591;52.532;13.348;2023-06-14T10:10:16;20.80;52.09
20862;DHT22;10591;52.532;13.348;2023-06-14T10:12:48;21.10;52.10
20862;DHT22;10591;52.532;13.348;2023-06-14T10:15:24;20.99;51.39
20862;DHT22;10591;52.532;13.348;2023-06-14T10:18:05;21.22;51.13
20862;DHT22;10591;52.532;13.348;2023-06-14T10:20:35;21.05;50.70
20862;DHT22;10591;52.532;13.348;2023-06-14T10:23:13;21.28;51.11
20862;DHT22;10591;52.532;13.348;2023-06-14T10:25:39;21.16;51.16
20862;DHT22;10591;52.532;13.348;2023-06-14T10:28:20;21.45;50.59
20862;DHT22;10591;52.532;13.348;2023-06-14T10:31:05;20.84;51.43
20862;DHT22;10591;52.532;13.348;2023-06-14T10:33:55;20.62;52.13
20862;DHT22;10591;52.532;13.348;2023-06-14T10:36:31;20.29;52.74
20862;DHT22;10591;52.532;13.348;2023-06-14T10:39:17;20.64;52.12
20862;DHT22;10591;52.532;13.348;2023-06-14T10:41:54;21.34;51.18
20862;DHT22;10591;52.532;13.348;2023-06-14T10:47:05;21.04;50.89
20862;DHT22;10591;52.532;13.348;2023-06-14T10:49:40;21.56;49.75
20862;DHT22;10591;52.532;13.348;2023-06-14T10:52:14;21.32;50.61
20862;DHT22;10591;52.532;13.348;2023-06-14T10:55:11;21.60;48.99
20862;DHT22;10591;52.532;13.348;2023-06-14T10:57:47;22.00;48.52
20862;DHT22;10591;52.532;13.348;2023-06-14T11:00:23;21.64;48.96
20862;DHT22;10591;52.532;13.348;2023-06-14T11:03:20;21.90;47.97
20862;DHT22;10591;52.532;13.348;2023-06-14T11:06:01;22.02;47.50
20862;DHT22;10591;52.532;13.348;2023-06-14T11:08:52;21.37;48.70
20862;DHT22;10591;52.532;13.348;2023-06-14T11:11:21;21.03;49.23
20862;DHT22;10591;52.532;13.348;2023-06-14T11:13:53;21.27;48.62
20862;DHT22;10591;52.532;13.348;2023-06-14T11:16:26;20.82;49.91
20862;DHT22;10591;52.532;13.348;2023-06-14T11:19:04;20.66;50.02
20862;DHT22;10591;52.532;13.348;2023-06-14T11:21:36;20.98;49.68
20862;DHT22;10591;52.532;13.348;2023-06-14T11:24:12;21.00;49.14
20862;DHT22;10591;52.532;13.348;2023-06-14T11:26:44;20.83;48.95
20862;DHT22;10591;52.532;13.348;2023-06-14T11:29:20;20.94;48.26
20862;DHT22;10591;52.532;13.348;2023-06-14T11:31:52;20.89;48.96
20862;DHT22;10591;52.532;13.348;2023-06-14T11:34:25;21.03;48.76
20862;DHT22;10591;52.532;13.348;2023-06-14T11:36:57;21.00;47.28
20862;DHT22;10591;52.532;13.348;2023-06-14T11:39:31;21.12;47.46
20862;DHT22;10591;52.532;13.348;2023-06-14T11:42:03;21.19;47.40
20862;DHT22;10591;52.532;13.348;2023-06-14T11:44:34;21.50;46.88
20862;DHT22;10591;52.532;13.348;2023-06-14T11:47:06;21.84;46.18
20862;DHT22;10591;52.532;13.348;2023-06-14T11:49:38;22.66;44.97
20862;DHT22;10591;52.532;13.348;2023-06-14T11:52:11;22.47;44.10
20862;DHT22;10591;52.532;13.348;2023-06-14T11:54:41;22.11;45.04
20862;DHT22;10591;52.532;13.348;2023-06-14T11:57:14;22.52;44.27
20862;DHT22;10591;52.532;13.348;2023-06-14T11:59:46;21.96;44.63
20862;DHT22;10591;52.532;13.348;2023-06-14T12:02:19;22.60;43.92
20862;DHT22;10591;52.532;13.348;2023-06-14T12:04:52;22.23;44.79
20862;DHT22;10591;52.532;13.348;2023-06-14T12:07:22;22.15;45.11
20862;DHT22;10591;52.532;13.348;2023-06-14T12:12:29;22.21;43.74
20862;DHT22;10591;52.532;13.348;2023-06-14T12:15:00;22.26;43.71
20862;DHT22;10591;52.532;13.348;2023-06-14T12:17:33;22.16;43.04
20862;DHT22;10591;52.532;13.348;2023-06-14T12:23:02;21.63;43.47
20862;DHT22;10591;52.532;13.348;2023-06-14T12:25:32;21.91;42.64
20862;DHT22;10591;52.532;13.348;2023-06-14T12:28:08;22.02;42.40
20862;DHT22;10591;52.532;13.348;2023-06-14T12:30:39;22.02;42.52
20862;DHT22;10591;52.532;13.348;2023-06-14T12:33:10;22.09;42.93
20862;DHT22;10591;52.532;13.348;2023-06-14T12:35:41;21.86;42.97
20862;DHT22;10591;52.532;13.348;2023-06-14T12:38:12;22.08;42.73
20862;DHT22;10591;52.532;13.348;2023-06-14T12:40:44;22.28;42.35
20862;DHT22;10591;52.532;13.348;2023-06-14T12:43:14;22.34;42.46
20862;DHT22;10591;52.532;13.348;2023-06-14T12:45:47;22.42;42.57
20862;DHT22;10591;52.532;13.348;2023-06-14T12:48:17;22.57;40.65
20862;DHT22;10591;52.532;13.348;2023-06-14T12:50:48;22.70;40.59
20862;DHT22;10591;52.532;13.348;2023-06-14T12:53:19;22.53;40.28
20862;DHT22;10591;52.532;13.348;2023-06-14T12:55:51;22.76;40.43
20862;DHT22;10591;52.532;13.348;2023-06-14T12:58:21;22.50;39.29
20862;DHT22;10591;52.532;13.348;2023-06-14T13:00:53;22.88;38.86
20862;DHT22;10591;52.532;13.348;2023-06-14T13:03:24;22.98;39.21
20862;DHT22;10591;52.532;13.348;2023-06-14T13:05:56;23.07;39.29
20862;DHT22;10591;52.532;13.348;2023-06-14T13:08:27;22.80;39.94
20862;DHT22;10591;52.532;13.348;2023-06-14T13:11:05;22.82;39.13
20862;DHT22;10591;52.532;13.348;2023-06-14T13:13:36;23.15;39.36
20862;DHT22;10591;52.532;13.348;2023-06-14T13:16:06;23.21;39.57
20862;DHT22;10591;52.532;13.348;2023-06-14T13:18:37;23.77;38.99
20862;DHT22;10591;52.532;13.348;2023-06-14T13:21:07;23.60;38.15
20862;DHT22;10591;52.532;13.348;2023-06-14T13:23:39;23.48;37.91
20862;DHT22;10591;52.532;13.348;2023-06-14T13:26:10;23.44;38.24
20862;DHT22;10591;52.532;13.348;2023-06-14T13:28:42;23.26;39.24
20862;DHT22;10591;52.532;13.348;2023-06-14T13:31:13;23.46;38.65
20862;DHT22;10591;52.532;13.348;2023-06-14T13:33:45;23.49;38.31
20862;DHT22;10591;52.532;13.348;2023-06-14T13:36:16;23.41;38.61
20862;DHT22;10591;52.532;13.348;2023-06-14T13:38:47;23.36;38.03
20862;DHT22;10591;52.532;13.348;2023-06-14T13:41:18;23.45;37.70
20862;DHT22;10591;52.532;13.348;2023-06-14T13:43:49;23.64;37.17
20862;DHT22;10591;52.532;13.348;2023-06-14T13:46:20;23.82;36.43
20862;DHT22;10591;52.532;13.348;2023-06-14T13:48:51;23.62;36.34
20862;DHT22;10591;52.532;13.348;2023-06-14T13:51:23;23.46;36.64
20862;DHT22;10591;52.532;13.348;2023-06-14T13:53:54;23.50;37.02
20862;DHT22;10591;52.532;13.348;2023-06-14T13:56:25;23.55;36.58
20862;DHT22;10591;52.532;13.348;2023-06-14T13:58:55;24.07;36.11
20862;DHT22;10591;52.532;13.348;2023-06-14T14:01:26;24.04;35.83
20862;DHT22;10591;52.532;13.348;2023-06-14T14:03:59;23.93;35.89
20862;DHT22;10591;52.532;13.348;2023-06-14T14:06:30;23.82;36.26
20862;DHT22;10591;52.532;13.348;2023-06-14T14:09:01;23.76;36.67
20862;DHT22;10591;52.532;13.348;2023-06-14T14:11:33;23.51;36.68
20862;DHT22;10591;52.532;13.348;2023-06-14T14:14:04;23.52;36.82
20862;DHT22;10591;52.532;13.348;2023-06-14T14:16:36;23.78;36.84
20862;DHT22;10591;52.532;13.348;2023-06-14T14:19:09;23.74;36.43
20862;DHT22;10591;52.532;13.348;2023-06-14T14:21:44;23.76;36.77
20862;DHT22;10591;52.532;13.348;2023-06-14T14:24:14;23.51;37.60
20862;DHT22;10591;52.532;13.348;2023-06-14T14:26:46;23.31;39.24
20862;DHT22;10591;52.532;13.348;2023-06-14T14:29:18;23.29;39.92
20862;DHT22;10591;52.532;13.348;2023-06-14T14:31:49;23.45;39.80
20862;DHT22;10591;52.532;13.348;2023-06-14T14:34:20;23.28;40.59
20862;DHT22;10591;52.532;13.348;2023-06-14T14:36:51;23.56;39.98
20862;DHT22;10591;52.532;13.348;2023-06-14T14:39:22;23.54;40.08
20862;DHT22;10591;52.532;13.348;2023-06-14T14:41:54;23.65;40.09
20862;DHT22;10591;52.532;13.348;2023-06-14T14:44:26;23.43;40.37
20862;DHT22;10591;52.532;13.348;2023-06-14T14:46:56;23.15;40.51
20862;DHT22;10591;52.532;13.348;2023-06-14T14:49:27;23.01;41.03
20862;DHT22;10591;52.532;13.348;2023-06-14T14:51:58;22.72;41.17
20862;DHT22;10591;52.532;13.348;2023-06-14T14:54:30;22.75;41.61
20862;DHT22;10591;52.532;13.348;2023-06-14T14:57:01;22.75;41.61
20862;DHT22;10591;52.532;13.348;2023-06-14T14:59:31;22.73;42.07
20862;DHT22;10591;52.532;13.348;2023-06-14T15:02:02;22.81;41.95
20862;DHT22;10591;52.532;13.348;2023-06-14T15:04:34;22.63;42.06
20862;DHT22;10591;52.532;13.348;2023-06-14T15:07:05;22.62;41.86
20862;DHT22;10591;52.532;13.348;2023-06-14T15:09:36;22.32;42.29
20862;DHT22;10591;52.532;13.348;2023-06-14T15:12:10;22.29;42.19
20862;DHT22;10591;52.532;13.348;2023-06-14T15:14:41;22.00;42.72
20862;DHT22;10591;52.532;13.348;2023-06-14T15:17:13;22.08;42.86
20862;DHT22;10591;52.532;13.348;2023-06-14T15:19:45;22.21;42.64
20862;DHT22;10591;52.532;13.348;2023-06-14T15:22:16;22.25;42.42
20862;DHT22;10591;52.532;13.348;2023-06-14T15:24:47;22.12;42.47
20862;DHT22;10591;52.532;13.348;2023-06-14T15:27:19;22.05;42.46
20862;DHT22;10591;52.532;13.348;2023-06-14T15:29:50;22.05;42.50
20862;DHT22;10591;52.532;13.348;2023-06-14T15:32:22;22.15;42.41
20862;DHT22;10591;52.532;13.348;2023-06-14T15:34:53;22.07;42.60
20862;DHT22;10591;52.532;13.348;2023-06-14T15:37:23;21.87;42.37
20862;DHT22;10591;52.532;13.348;2023-06-14T15:39:54;21.98;42.45
20862;DHT22;10591;52.532;13.348;2023-06-14T15:42:25;22.22;41.91
20862;DHT22;10591;52.532;13.348;2023-06-14T15:44:56;22.42;42.00
20862;DHT22;10591;52.532;13.348;2023-06-14T15:47:29;22.36;42.26
20862;DHT22;10591;52.532;13.348;2023-06-14T15:50:00;22.59;40.95
20862;DHT22;10591;52.532;13.348;2023-06-14T15:52:31;22.37;41.06
20862;DHT22;10591;52.532;13.348;2023-06-14T15:55:02;22.73;40.77